Portada
METAR-TAF:

METAR-TAF

Aeroports :

São Luís, Maranhão, Brasil

latitud: 02-36S, longitud: 044-14W, altitud: 53 m

Observació

L'informe es va fer fa 1 hora i 3 minuts, a les 02:00 UTC
Vent 5 kt del Nord-Est
Temperatura 26°C
Humitat 89%
Pressió 1011 hPa
Visibilitat 10 km o més
sense núvols per sota de 1500 mi sense presència de cumulonimbus.

METAR: SBSL 210200Z 05005KT CAVOK 26/24 Q1011

Hora: 00:03 (03:03 UTC)

Pronòstic

L'informe es va fer fa 6 hores i 3 minuts, a les 21:00 UTC
Pronòstic vàlid del 21 a les 00 UTC al 21 a les 24 UTC
Vent 10 kt del Nord/Nord-Est
Visibilitat 10 km o més
Escasses núvols a una alçada de 2500 ft
Evolucionant progressivament
l' 21 a les 11 UTC al 21 a les 13 UTC
Vent 15 kt del Nord-Est
Cel ennuvolat a una alçada de 1700 ft

TAF: SBSL 202100Z 2100/2124 02010KT 9999 FEW025 TN26/2108Z TX32/2116Z BECMG 2111/2113 04015KT BKN017 RMK PGU

Observacions i pronòstics meteorològics de més de 4000 aeroports (METAR i TAF).

Les estacions disponibles són els punts grocs i vermells al mapa.

Posi el ratolí al punt desitjat per veure el nom de l'estació.

Feu clic per veure les observacions i els pronòstics meteorològics.

Per canviar el mapa: feu clic els botons verds amb una creu de color negre per apropar; al botó verd amb un guió per allunyar la imatge; o en les fletxes verdes per a mapes adjacents.


METAR-TAF: